Terminal Aerodrome Forecast
Issued by NWS Glasgow, MT

Home | Current Version | Previous Version | Text Only | Print | Product List | Glossary On
Versions: 1 2 3 4 5 6 7 8 9 10 11 12 13 14 15 16 17 18 19 20 21 22 23 24 25
000
FTUS45 KGGW 302300
TAFGGW
TAF
KGGW 302320Z 3100/3124 VRB05KT P6SM FEW018
     FM310300 VRB05KT P6SM FEW010 BKN018
     FM310600 09010KT P6SM VCSH SCT010 OVC018
     FM311200 08018G28KT 1SM -SN SCT004 OVC030=

USA.gov is the U.S. government's official web portal to all federal, state and local government web resources and services.